createdAt,value
2023-04-18T00:00:44.099Z,81.36
2023-04-18T00:03:16.903Z,81.43
2023-04-18T00:05:48.386Z,81.53
2023-04-18T00:08:16.447Z,81.47
2023-04-18T00:10:44.473Z,81.60
2023-04-18T00:13:12.862Z,81.56
2023-04-18T00:15:43.970Z,81.79
2023-04-18T00:18:21.752Z,81.80
2023-04-18T00:20:50.103Z,81.96
2023-04-18T00:23:18.716Z,81.98
2023-04-18T00:25:46.803Z,81.92
2023-04-18T00:28:15.045Z,81.95
2023-04-18T00:30:42.935Z,82.01
2023-04-18T00:33:11.093Z,81.92
2023-04-18T00:35:39.492Z,82.08
2023-04-18T00:38:08.975Z,81.96
2023-04-18T00:40:38.062Z,81.93
2023-04-18T00:43:08.488Z,81.95
2023-04-18T00:45:37.193Z,82.10
2023-04-18T00:48:05.489Z,82.02
2023-04-18T00:50:33.656Z,82.10
2023-04-18T00:53:02.955Z,82.17
2023-04-18T00:55:31.122Z,82.15
2023-04-18T00:57:59.272Z,82.24
2023-04-18T01:00:27.423Z,82.19
2023-04-18T01:02:56.383Z,82.42
2023-04-18T01:05:27.099Z,82.26
2023-04-18T01:08:01.200Z,82.39
2023-04-18T01:10:31.178Z,82.47
2023-04-18T01:13:16.157Z,82.37
2023-04-18T01:15:49.043Z,82.33
2023-04-18T01:18:18.117Z,82.35
2023-04-18T01:22:02.708Z,82.42
2023-04-18T01:24:36.501Z,82.33
2023-04-18T01:27:04.621Z,82.38
2023-04-18T01:29:35.048Z,82.53
2023-04-18T01:32:04.353Z,82.42
2023-04-18T01:34:32.540Z,82.46
2023-04-18T01:37:00.492Z,82.58
2023-04-18T01:39:28.970Z,82.51
2023-04-18T01:41:57.280Z,82.51
2023-04-18T01:44:25.163Z,82.47
2023-04-18T01:46:53.242Z,82.45
2023-04-18T01:49:21.401Z,82.56
2023-04-18T01:51:50.370Z,82.58
2023-04-18T01:54:18.300Z,82.53
2023-04-18T01:56:46.551Z,82.43
2023-04-18T01:59:14.464Z,82.45
2023-04-18T02:01:42.974Z,82.53
2023-04-18T02:04:11.773Z,82.60
2023-04-18T02:06:39.842Z,82.45
2023-04-18T02:09:07.828Z,82.52
2023-04-18T02:11:36.012Z,82.56
2023-04-18T02:14:04.377Z,82.65
2023-04-18T02:16:32.439Z,82.49
2023-04-18T02:19:01.538Z,82.49
2023-04-18T02:21:30.471Z,82.58
2023-04-18T02:23:58.554Z,82.59
2023-04-18T02:26:26.820Z,82.45
2023-04-18T02:28:58.865Z,82.59
2023-04-18T02:31:27.226Z,82.55
2023-04-18T02:33:55.178Z,82.62
2023-04-18T02:36:23.625Z,82.63
2023-04-18T02:38:51.903Z,82.55
2023-04-18T02:41:21.192Z,82.60
2023-04-18T02:43:49.227Z,82.72
2023-04-18T02:46:18.122Z,82.77
2023-04-18T02:48:48.302Z,82.70
2023-04-18T02:51:16.954Z,82.74
2023-04-18T02:53:45.414Z,82.66
2023-04-18T02:56:17.660Z,82.73
2023-04-18T02:59:18.071Z,82.63
2023-04-18T03:02:21.192Z,82.72
2023-04-18T03:04:53.624Z,82.71
2023-04-18T03:07:21.862Z,82.75
2023-04-18T03:09:50.295Z,82.75
2023-04-18T03:12:23.172Z,82.80
2023-04-18T03:14:51.076Z,82.90
2023-04-18T03:17:19.247Z,82.93
2023-04-18T03:19:49.788Z,82.88
2023-04-18T03:22:20.063Z,82.90
2023-04-18T03:24:55.399Z,83.03
2023-04-18T03:27:26.228Z,83.06
2023-04-18T03:29:54.589Z,83.04
2023-04-18T03:32:23.786Z,83.25
2023-04-18T03:34:51.802Z,83.25
2023-04-18T03:37:20.097Z,83.39
2023-04-18T03:39:51.664Z,83.31
2023-04-18T03:42:19.864Z,83.23
2023-04-18T03:44:47.971Z,83.48
2023-04-18T03:47:17.228Z,83.42
2023-04-18T03:49:48.004Z,83.66
2023-04-18T03:52:16.173Z,83.63
2023-04-18T03:54:44.487Z,83.66
2023-04-18T03:57:12.890Z,83.79
2023-04-18T03:59:41.521Z,83.80
2023-04-18T04:02:09.962Z,83.78
2023-04-18T04:04:38.641Z,83.84
2023-04-18T04:07:06.818Z,83.92
2023-04-18T04:09:35.054Z,83.91
2023-04-18T04:12:03.117Z,83.94
2023-04-18T04:14:31.259Z,83.94
2023-04-18T04:16:59.493Z,83.92
2023-04-18T04:19:27.457Z,83.92
2023-04-18T04:22:05.303Z,83.86
2023-04-18T04:24:33.855Z,83.79
2023-04-18T04:27:03.789Z,83.77
2023-04-18T04:29:33.028Z,83.73
2023-04-18T04:32:01.216Z,83.62
2023-04-18T04:34:35.871Z,83.56
2023-04-18T04:37:05.560Z,83.64
2023-04-18T04:39:37.589Z,83.54
2023-04-18T04:42:25.516Z,83.51
2023-04-18T04:45:03.878Z,83.30
2023-04-18T04:47:32.059Z,83.52
2023-04-18T04:49:59.976Z,83.55
2023-04-18T04:52:28.494Z,83.29
2023-04-18T04:54:56.630Z,83.36
2023-04-18T04:57:26.454Z,83.29
2023-04-18T04:59:54.722Z,83.25
2023-04-18T05:02:23.613Z,83.31
2023-04-18T05:04:51.626Z,83.26
2023-04-18T05:07:19.866Z,83.33
2023-04-18T05:09:47.954Z,83.26
2023-04-18T05:12:15.870Z,83.22
2023-04-18T05:14:43.948Z,83.10
2023-04-18T05:17:11.824Z,83.09
2023-04-18T05:19:40.301Z,83.17
2023-04-18T05:22:08.358Z,83.22
2023-04-18T05:24:36.318Z,82.95
2023-04-18T05:27:04.568Z,82.90
2023-04-18T05:29:32.746Z,82.85
2023-04-18T05:32:01.769Z,82.88
2023-04-18T05:34:30.176Z,83.02
2023-04-18T05:36:58.606Z,82.90
2023-04-18T05:39:26.848Z,82.93
2023-04-18T05:41:54.756Z,82.83
2023-04-18T05:44:24.410Z,82.81
2023-04-18T05:46:52.503Z,82.66
2023-04-18T05:49:20.463Z,82.62
2023-04-18T05:51:53.055Z,82.72
2023-04-18T05:54:21.587Z,82.46
2023-04-18T05:56:49.868Z,82.46
2023-04-18T05:59:18.027Z,82.60
2023-04-18T06:01:45.933Z,82.54
2023-04-18T06:04:14.442Z,82.45
2023-04-18T06:06:42.992Z,82.54
2023-04-18T06:09:11.237Z,82.27
2023-04-18T06:11:39.255Z,82.18
2023-04-18T06:14:08.020Z,82.05
2023-04-18T06:16:37.527Z,82.02
2023-04-18T06:19:05.973Z,82.09
2023-04-18T06:21:34.095Z,81.97
2023-04-18T06:24:02.348Z,81.81
2023-04-18T06:26:32.180Z,81.59
2023-04-18T06:29:00.261Z,81.49
2023-04-18T06:31:28.304Z,81.12
2023-04-18T06:33:57.080Z,81.10
2023-04-18T06:36:27.030Z,81.04
2023-04-18T06:38:55.052Z,80.97
2023-04-18T06:41:23.583Z,80.71
2023-04-18T06:44:02.919Z,80.49
2023-04-18T06:46:33.112Z,80.42
2023-04-18T06:49:02.179Z,80.42
2023-04-18T06:51:30.132Z,80.19
2023-04-18T06:54:00.378Z,80.09
2023-04-18T06:56:29.898Z,79.92
2023-04-18T06:58:57.796Z,80.18
2023-04-18T07:01:26.043Z,80.08
2023-04-18T07:03:54.311Z,80.03
2023-04-18T07:06:22.486Z,79.84
2023-04-18T07:08:52.206Z,79.49
2023-04-18T07:11:23.738Z,79.56
2023-04-18T07:13:51.727Z,79.76
2023-04-18T07:16:20.467Z,79.71
2023-04-18T07:18:48.693Z,79.67
2023-04-18T07:21:16.666Z,79.57
2023-04-18T07:23:47.522Z,79.34
2023-04-18T07:26:16.020Z,79.16
2023-04-18T07:28:44.391Z,78.87
2023-04-18T07:31:14.596Z,78.65
2023-04-18T07:33:43.940Z,78.37
2023-04-18T07:36:12.913Z,78.46
2023-04-18T07:38:40.978Z,78.45
2023-04-18T07:41:09.198Z,78.15
2023-04-18T07:43:38.854Z,77.94
2023-04-18T07:46:08.669Z,77.91
2023-04-18T07:48:36.984Z,77.75
2023-04-18T07:51:05.358Z,77.94
2023-04-18T07:53:33.433Z,77.75
2023-04-18T07:56:03.083Z,77.85
2023-04-18T07:58:31.216Z,77.83
2023-04-18T08:00:59.227Z,77.32
2023-04-18T08:03:28.168Z,77.28
2023-04-18T08:05:56.909Z,77.39
2023-04-18T08:08:29.429Z,77.35
2023-04-18T08:10:57.407Z,77.41
2023-04-18T08:13:25.925Z,77.40
2023-04-18T08:15:56.143Z,77.24
2023-04-18T08:18:24.188Z,77.04
2023-04-18T08:20:52.283Z,76.67
2023-04-18T08:23:20.890Z,76.72
2023-04-18T08:25:49.150Z,76.54
2023-04-18T08:28:17.504Z,76.16
2023-04-18T08:30:49.057Z,76.31
2023-04-18T08:33:18.555Z,75.85
2023-04-18T08:38:44.207Z,75.95
2023-04-18T08:41:12.395Z,75.81
2023-04-18T08:43:40.305Z,75.37
2023-04-18T08:46:09.386Z,75.40
2023-04-18T08:48:38.283Z,75.22
2023-04-18T08:51:06.294Z,74.85
2023-04-18T08:53:34.399Z,74.81
2023-04-18T08:56:03.031Z,74.09
2023-04-18T08:58:33.846Z,73.81
2023-04-18T09:01:02.634Z,74.14
2023-04-18T09:03:41.316Z,74.14
2023-04-18T09:06:21.225Z,73.76
2023-04-18T09:08:59.284Z,73.46
2023-04-18T09:11:29.918Z,73.30
2023-04-18T09:13:59.135Z,73.17
2023-04-18T09:16:28.144Z,73.62
2023-04-18T09:19:18.740Z,73.89
2023-04-18T09:21:57.100Z,73.59
2023-04-18T09:24:27.262Z,73.51
2023-04-18T09:26:57.336Z,73.28
2023-04-18T09:29:49.758Z,73.09
2023-04-18T09:32:27.182Z,73.28
2023-04-18T09:34:58.865Z,72.55
2023-04-18T09:37:28.210Z,72.44
2023-04-18T09:39:56.059Z,71.47
2023-04-18T09:42:26.754Z,71.24
2023-04-18T09:45:06.598Z,70.74
2023-04-18T09:47:36.752Z,70.27
2023-04-18T09:50:12.009Z,69.86
2023-04-18T09:52:42.101Z,68.95
2023-04-18T09:55:19.562Z,68.43
2023-04-18T09:57:49.075Z,67.09
2023-04-18T10:00:24.852Z,67.10
2023-04-18T10:03:10.753Z,66.59
2023-04-18T10:05:41.544Z,65.76
2023-04-18T10:08:10.604Z,65.44
2023-04-18T10:10:39.168Z,64.98
2023-04-18T10:13:13.675Z,65.15
2023-04-18T10:15:44.077Z,64.81
2023-04-18T10:18:18.769Z,64.40
2023-04-18T10:20:47.441Z,64.32
2023-04-18T10:23:31.081Z,64.57
2023-04-18T10:25:59.771Z,64.13
2023-04-18T10:28:41.111Z,63.88
2023-04-18T10:31:09.375Z,64.53
2023-04-18T10:33:42.807Z,64.28
2023-04-18T10:36:13.945Z,62.75
2023-04-18T10:38:50.584Z,61.97
2023-04-18T10:41:27.139Z,62.23
2023-04-18T10:44:08.652Z,62.70
2023-04-18T10:46:44.096Z,62.87
2023-04-18T10:49:20.166Z,62.90
2023-04-18T10:51:49.872Z,62.56
2023-04-18T10:54:32.948Z,62.67
2023-04-18T10:57:03.939Z,62.75
2023-04-18T10:59:34.843Z,62.72
2023-04-18T11:02:18.126Z,63.14
2023-04-18T11:04:57.745Z,63.28
2023-04-18T11:07:38.498Z,63.36
2023-04-18T11:10:09.341Z,62.82
2023-04-18T11:12:39.702Z,62.78
2023-04-18T11:15:14.550Z,63.15
2023-04-18T11:17:43.886Z,63.15
2023-04-18T11:20:15.562Z,63.23
2023-04-18T11:22:49.780Z,62.85
2023-04-18T11:25:28.303Z,62.55
2023-04-18T11:28:00.049Z,62.66
2023-04-18T11:30:36.199Z,62.74
2023-04-18T11:33:09.279Z,63.63
2023-04-18T11:35:42.908Z,63.56
2023-04-18T11:38:14.256Z,63.19
2023-04-18T11:40:49.884Z,62.32
2023-04-18T11:43:22.859Z,61.99
2023-04-18T11:45:59.790Z,61.68
2023-04-18T11:48:42.281Z,61.28
2023-04-18T11:51:38.900Z,61.63
2023-04-18T11:54:36.346Z,61.03
2023-04-18T11:57:06.591Z,60.03
2023-04-18T11:59:38.288Z,60.30
2023-04-18T12:02:16.043Z,60.87
2023-04-18T12:04:56.896Z,60.07
2023-04-18T12:07:41.504Z,59.94
2023-04-18T12:10:23.650Z,59.69
2023-04-18T12:12:54.581Z,59.49
2023-04-18T12:15:28.446Z,60.09
2023-04-18T12:18:02.739Z,60.39
2023-04-18T12:20:46.524Z,59.91
2023-04-18T12:23:31.549Z,59.63
2023-04-18T12:26:07.847Z,59.29
2023-04-18T12:28:36.316Z,59.27
2023-04-18T12:31:07.473Z,58.83
2023-04-18T12:33:36.979Z,58.37
2023-04-18T12:36:06.231Z,58.71
2023-04-18T12:38:35.160Z,59.08
2023-04-18T12:41:03.244Z,59.05
2023-04-18T12:43:40.341Z,59.29
2023-04-18T12:46:08.446Z,58.58
2023-04-18T12:48:36.789Z,58.37
2023-04-18T12:51:04.978Z,58.44
2023-04-18T12:53:33.082Z,58.73
2023-04-18T12:56:01.182Z,59.00
2023-04-18T12:58:29.087Z,58.87
2023-04-18T13:00:57.998Z,59.46
2023-04-18T13:03:29.406Z,59.35
2023-04-18T13:05:57.639Z,59.30
2023-04-18T13:08:26.064Z,58.76
2023-04-18T13:10:54.078Z,59.07
2023-04-18T13:13:22.114Z,58.77
2023-04-18T13:15:51.594Z,58.16
2023-04-18T13:18:19.844Z,57.95
2023-04-18T13:20:47.897Z,58.33
2023-04-18T13:23:15.905Z,58.38
2023-04-18T13:25:44.197Z,57.85
2023-04-18T13:28:12.198Z,58.40
2023-04-18T13:30:40.310Z,58.16
2023-04-18T13:33:08.387Z,57.76
2023-04-18T13:35:37.661Z,58.06
2023-04-18T13:38:06.095Z,57.57
2023-04-18T13:40:34.289Z,57.42
2023-04-18T13:43:02.488Z,57.17
2023-04-18T13:45:30.747Z,56.58
2023-04-18T13:47:59.214Z,56.76
2023-04-18T13:50:27.422Z,56.53
2023-04-18T13:52:55.489Z,56.31
2023-04-18T13:55:24.310Z,56.98
2023-04-18T13:57:55.072Z,56.64
2023-04-18T14:00:23.409Z,56.81
2023-04-18T14:02:51.859Z,56.46
2023-04-18T14:05:19.974Z,56.31
2023-04-18T14:07:48.936Z,55.97
2023-04-18T14:10:17.112Z,56.41
2023-04-18T14:12:46.057Z,56.44
2023-04-18T14:15:14.325Z,56.14
2023-04-18T14:17:45.242Z,56.28
2023-04-18T14:20:15.926Z,55.80
2023-04-18T14:22:44.185Z,55.39
2023-04-18T14:25:14.490Z,56.16
2023-04-18T14:27:43.284Z,56.02
2023-04-18T14:30:11.835Z,56.16
2023-04-18T14:32:40.612Z,55.33
2023-04-18T14:35:10.409Z,55.06
2023-04-18T14:37:38.537Z,55.61
2023-04-18T14:40:08.289Z,56.08
2023-04-18T14:42:36.588Z,56.14
2023-04-18T14:45:07.772Z,56.20
2023-04-18T14:47:35.990Z,55.90
2023-04-18T14:50:04.456Z,55.31
2023-04-18T14:52:32.635Z,54.78
2023-04-18T14:55:00.559Z,54.61
2023-04-18T14:57:31.306Z,54.91
2023-04-18T14:59:59.486Z,54.43
2023-04-18T15:02:27.455Z,54.82
2023-04-18T15:04:56.170Z,54.97
2023-04-18T15:07:24.856Z,55.18
2023-04-18T15:09:52.807Z,55.63
2023-04-18T15:12:20.974Z,55.85
2023-04-18T15:14:52.006Z,55.26
2023-04-18T15:17:20.500Z,54.56
2023-04-18T15:19:49.320Z,54.32
2023-04-18T15:22:20.413Z,54.68
2023-04-18T15:24:52.167Z,54.77
2023-04-18T15:27:20.354Z,54.70
2023-04-18T15:29:48.295Z,54.49
2023-04-18T15:32:18.322Z,54.77
2023-04-18T15:34:46.787Z,54.26
2023-04-18T15:37:14.899Z,54.00
2023-04-18T15:39:42.949Z,53.00
2023-04-18T15:42:11.357Z,52.20
2023-04-18T15:44:39.698Z,51.85
2023-04-18T15:47:12.938Z,51.86
2023-04-18T15:49:43.274Z,51.60
2023-04-18T15:52:11.842Z,51.72
2023-04-18T15:54:43.048Z,52.03
2023-04-18T15:57:12.299Z,52.15
2023-04-18T15:59:40.329Z,52.03
2023-04-18T16:02:09.485Z,52.26
2023-04-18T16:04:37.928Z,52.25
2023-04-18T16:07:06.525Z,52.13
2023-04-18T16:09:34.730Z,52.43
2023-04-18T16:12:03.400Z,52.88
2023-04-18T16:14:32.197Z,52.52
2023-04-18T16:17:00.729Z,53.13
2023-04-18T16:19:28.756Z,53.01
2023-04-18T16:21:57.371Z,53.34
2023-04-18T16:24:25.937Z,53.31
2023-04-18T16:26:55.668Z,53.34
2023-04-18T16:29:23.960Z,53.85
2023-04-18T16:31:52.215Z,54.33
2023-04-18T16:34:20.783Z,54.25
2023-04-18T16:36:50.982Z,54.25
2023-04-18T16:39:19.657Z,54.31
2023-04-18T16:41:47.836Z,54.23
2023-04-18T16:44:16.190Z,54.36
2023-04-18T16:46:44.541Z,54.66
2023-04-18T16:49:12.916Z,55.03
2023-04-18T16:51:40.929Z,54.75
2023-04-18T16:54:09.143Z,54.75
2023-04-18T16:56:37.779Z,54.70
2023-04-18T16:59:09.278Z,54.99
2023-04-18T17:01:37.880Z,55.29
2023-04-18T17:04:06.264Z,55.75
2023-04-18T17:06:34.429Z,55.72
2023-04-18T17:09:02.676Z,55.73
2023-04-18T17:11:32.590Z,56.00
2023-04-18T17:14:00.813Z,55.90
2023-04-18T17:16:28.777Z,56.10
2023-04-18T17:18:57.778Z,56.40
2023-04-18T17:21:27.472Z,56.38
2023-04-18T17:23:56.538Z,56.57
2023-04-18T17:26:26.693Z,56.65
2023-04-18T17:28:54.730Z,56.67
2023-04-18T17:31:22.794Z,57.15
2023-04-18T17:33:50.998Z,57.07
2023-04-18T17:36:19.066Z,57.22
2023-04-18T17:38:49.695Z,57.39
2023-04-18T17:41:20.505Z,57.72
2023-04-18T17:43:51.041Z,58.06
2023-04-18T17:46:19.684Z,58.20
2023-04-18T17:48:47.583Z,58.28
2023-04-18T17:51:19.659Z,58.90
2023-04-18T17:53:47.711Z,58.77
2023-04-18T17:56:15.737Z,58.89
2023-04-18T17:58:43.758Z,59.18
2023-04-18T18:01:19.886Z,59.25
2023-04-18T18:03:48.851Z,59.47
2023-04-18T18:06:17.297Z,59.79
2023-04-18T18:08:45.357Z,60.04
2023-04-18T18:11:13.901Z,60.39
2023-04-18T18:13:42.355Z,60.72
2023-04-18T18:16:10.320Z,60.87
2023-04-18T18:18:39.153Z,61.17
2023-04-18T18:21:07.304Z,61.17
2023-04-18T18:23:35.608Z,60.94
2023-04-18T18:26:04.430Z,61.11
2023-04-18T18:28:33.295Z,60.89
2023-04-18T18:31:01.479Z,60.70
2023-04-18T18:33:29.745Z,60.94
2023-04-18T18:35:58.650Z,61.00
2023-04-18T18:38:27.092Z,60.80
2023-04-18T18:40:55.222Z,60.79
2023-04-18T18:43:26.715Z,60.74
2023-04-18T18:45:54.804Z,60.70
2023-04-18T18:48:24.274Z,60.56
2023-04-18T18:50:52.549Z,60.62
2023-04-18T18:53:20.640Z,60.73
2023-04-18T18:55:48.682Z,60.99
2023-04-18T18:58:16.829Z,60.61
2023-04-18T19:00:47.051Z,60.38
2023-04-18T19:03:17.092Z,60.62
2023-04-18T19:05:47.972Z,60.55
2023-04-18T19:08:15.859Z,60.73
2023-04-18T19:10:44.359Z,60.57
2023-04-18T19:13:12.501Z,60.73
2023-04-18T19:15:40.699Z,60.93
2023-04-18T19:18:08.909Z,60.93
2023-04-18T19:20:39.220Z,61.15
2023-04-18T19:23:07.517Z,61.15
2023-04-18T19:25:36.426Z,61.15
2023-04-18T19:28:06.004Z,61.19
2023-04-18T19:30:33.892Z,61.47
2023-04-18T19:33:02.116Z,61.48
2023-04-18T19:35:30.422Z,61.53
2023-04-18T19:38:01.848Z,61.74
2023-04-18T19:40:30.100Z,61.77
2023-04-18T19:42:58.419Z,61.70
2023-04-18T19:45:26.864Z,61.90
2023-04-18T19:47:55.694Z,61.95
2023-04-18T19:50:23.615Z,61.99
2023-04-18T19:52:51.708Z,61.89
2023-04-18T19:55:19.826Z,61.85
2023-04-18T19:57:48.498Z,61.98
2023-04-18T20:00:16.769Z,61.99
2023-04-18T20:02:45.018Z,61.96
2023-04-18T20:05:16.109Z,62.02
2023-04-18T20:07:44.568Z,61.92
2023-04-18T20:10:13.016Z,61.99
2023-04-18T20:12:41.172Z,62.04
2023-04-18T20:15:09.499Z,61.74
2023-04-18T20:17:37.825Z,61.78
2023-04-18T20:20:09.119Z,61.74
2023-04-18T20:22:38.788Z,61.92
2023-04-18T20:25:09.222Z,61.93
2023-04-18T20:27:37.075Z,61.86
2023-04-18T20:30:06.472Z,62.04
2023-04-18T20:32:36.430Z,62.16
2023-04-18T20:35:04.719Z,62.52
2023-04-18T20:37:36.923Z,62.66
2023-04-18T20:40:08.338Z,62.89
2023-04-18T20:42:37.328Z,63.17
2023-04-18T20:45:06.530Z,63.19
2023-04-18T20:47:34.822Z,63.39
2023-04-18T20:50:03.472Z,63.58
2023-04-18T20:52:33.005Z,63.79
2023-04-18T20:55:01.234Z,63.85
2023-04-18T20:57:29.300Z,64.10
2023-04-18T21:00:02.417Z,64.18
2023-04-18T21:02:30.983Z,64.51
2023-04-18T21:04:59.675Z,64.57
2023-04-18T21:07:31.436Z,64.63
2023-04-18T21:10:00.034Z,64.69
2023-04-18T21:12:29.719Z,64.86
2023-04-18T21:14:57.762Z,65.12
2023-04-18T21:17:26.096Z,65.20
2023-04-18T21:19:55.957Z,65.53
2023-04-18T21:22:23.886Z,65.54
2023-04-18T21:24:51.867Z,65.76
2023-04-18T21:27:19.842Z,65.66
2023-04-18T21:29:48.269Z,65.85
2023-04-18T21:32:16.275Z,66.00
2023-04-18T21:34:44.299Z,65.83
2023-04-18T21:37:12.361Z,66.06
2023-04-18T21:39:40.465Z,65.91
2023-04-18T21:42:08.975Z,66.04
2023-04-18T21:44:37.605Z,66.14
2023-04-18T21:47:05.854Z,66.12
2023-04-18T21:49:35.171Z,66.30
2023-04-18T21:52:03.132Z,66.36
2023-04-18T21:54:31.224Z,66.38
2023-04-18T21:57:00.618Z,66.45
2023-04-18T21:59:28.739Z,66.50
2023-04-18T22:01:57.078Z,66.57
2023-04-18T22:04:26.651Z,66.63
2023-04-18T22:06:55.085Z,66.68
2023-04-18T22:09:23.544Z,66.73
2023-04-18T22:11:51.878Z,66.79
2023-04-18T22:14:20.374Z,67.04
2023-04-18T22:16:50.158Z,67.13
2023-04-18T22:19:18.756Z,67.01
2023-04-18T22:21:46.887Z,67.14
2023-04-18T22:24:15.149Z,67.29
2023-04-18T22:26:43.302Z,67.38
2023-04-18T22:29:11.612Z,67.53
2023-04-18T22:31:42.944Z,67.58
2023-04-18T22:34:10.817Z,67.57
2023-04-18T22:36:39.073Z,67.55
2023-04-18T22:39:07.443Z,67.64
2023-04-18T22:41:35.351Z,67.76
2023-04-18T22:44:03.596Z,67.80
2023-04-18T22:46:32.961Z,67.79
2023-04-18T22:49:01.162Z,67.98
2023-04-18T22:51:29.286Z,68.13
2023-04-18T22:53:57.515Z,68.23
2023-04-18T22:56:25.554Z,68.26
2023-04-18T22:58:53.513Z,68.26
2023-04-18T23:01:21.707Z,68.28
2023-04-18T23:03:49.760Z,68.47
2023-04-18T23:06:17.927Z,68.61
2023-04-18T23:08:46.114Z,68.81
2023-04-18T23:11:14.091Z,69.07
2023-04-18T23:13:42.162Z,69.55
2023-04-18T23:16:10.454Z,70.06
2023-04-18T23:18:38.482Z,70.66
2023-04-18T23:21:06.583Z,71.33
2023-04-18T23:23:34.665Z,71.83
2023-04-18T23:26:02.664Z,72.10
2023-04-18T23:28:30.644Z,72.50
2023-04-18T23:30:58.689Z,72.75
2023-04-18T23:33:26.669Z,72.89
2023-04-18T23:35:54.662Z,73.15
2023-04-18T23:38:22.640Z,73.42
2023-04-18T23:40:50.682Z,73.64
2023-04-18T23:43:18.920Z,73.84
2023-04-18T23:45:46.944Z,74.10
2023-04-18T23:48:14.886Z,74.42
2023-04-18T23:50:50.624Z,74.53
2023-04-18T23:53:22.671Z,74.91
2023-04-18T23:55:51.116Z,75.16
2023-04-18T23:58:19.339Z,75.19
